sensor_id;sensor_type;location;lat;lon;timestamp;P1;durP1;ratioP1;P2;durP2;ratioP2
36555;SDS011;40859;50.560;7.268;2022-11-11T00:00:06;8.82;;;3.67;;
36555;SDS011;40859;50.560;7.268;2022-11-11T00:02:33;15.50;;;3.97;;
36555;SDS011;40859;50.560;7.268;2022-11-11T00:04:59;10.27;;;4.32;;
36555;SDS011;40859;50.560;7.268;2022-11-11T00:07:26;8.43;;;3.60;;
36555;SDS011;40859;50.560;7.268;2022-11-11T00:09:52;11.32;;;4.07;;
36555;SDS011;40859;50.560;7.268;2022-11-11T00:12:18;9.50;;;3.30;;
36555;SDS011;40859;50.560;7.268;2022-11-11T00:14:45;11.00;;;3.62;;
36555;SDS011;40859;50.560;7.268;2022-11-11T00:17:12;8.30;;;3.10;;
36555;SDS011;40859;50.560;7.268;2022-11-11T00:22:41;10.57;;;4.03;;
36555;SDS011;40859;50.560;7.268;2022-11-11T00:27:52;9.48;;;3.25;;
36555;SDS011;40859;50.560;7.268;2022-11-11T00:30:18;11.07;;;4.20;;
36555;SDS011;40859;50.560;7.268;2022-11-11T00:32:45;11.77;;;3.42;;
36555;SDS011;40859;50.560;7.268;2022-11-11T00:35:11;10.68;;;4.55;;
36555;SDS011;40859;50.560;7.268;2022-11-11T00:38:02;7.87;;;3.20;;
36555;SDS011;40859;50.560;7.268;2022-11-11T00:40:31;10.30;;;4.15;;
36555;SDS011;40859;50.560;7.268;2022-11-11T00:42:58;6.68;;;2.95;;
36555;SDS011;40859;50.560;7.268;2022-11-11T00:45:24;11.32;;;3.90;;
36555;SDS011;40859;50.560;7.268;2022-11-11T00:47:50;8.40;;;3.25;;
36555;SDS011;40859;50.560;7.268;2022-11-11T00:53:20;5.72;;;3.42;;
36555;SDS011;40859;50.560;7.268;2022-11-11T00:55:47;5.80;;;3.40;;
36555;SDS011;40859;50.560;7.268;2022-11-11T00:58:14;7.05;;;2.90;;
36555;SDS011;40859;50.560;7.268;2022-11-11T01:00:41;6.93;;;2.83;;
36555;SDS011;40859;50.560;7.268;2022-11-11T01:03:08;8.82;;;2.78;;
36555;SDS011;40859;50.560;7.268;2022-11-11T01:05:37;6.57;;;2.75;;
36555;SDS011;40859;50.560;7.268;2022-11-11T01:08:04;8.00;;;2.90;;
36555;SDS011;40859;50.560;7.268;2022-11-11T01:10:30;4.00;;;2.80;;
36555;SDS011;40859;50.560;7.268;2022-11-11T01:13:03;6.32;;;2.47;;
36555;SDS011;40859;50.560;7.268;2022-11-11T01:15:36;6.62;;;2.60;;
36555;SDS011;40859;50.560;7.268;2022-11-11T01:18:03;6.25;;;3.10;;
36555;SDS011;40859;50.560;7.268;2022-11-11T01:20:29;7.97;;;2.80;;
36555;SDS011;40859;50.560;7.268;2022-11-11T01:22:55;7.75;;;2.65;;
36555;SDS011;40859;50.560;7.268;2022-11-11T01:25:22;5.40;;;2.75;;
36555;SDS011;40859;50.560;7.268;2022-11-11T01:27:48;8.38;;;2.95;;
36555;SDS011;40859;50.560;7.268;2022-11-11T01:30:15;7.53;;;2.80;;
36555;SDS011;40859;50.560;7.268;2022-11-11T01:32:41;6.18;;;3.28;;
36555;SDS011;40859;50.560;7.268;2022-11-11T01:35:07;7.10;;;2.72;;
36555;SDS011;40859;50.560;7.268;2022-11-11T01:37:34;5.93;;;2.60;;
36555;SDS011;40859;50.560;7.268;2022-11-11T01:40:01;7.12;;;3.15;;
36555;SDS011;40859;50.560;7.268;2022-11-11T01:42:27;4.43;;;2.37;;
36555;SDS011;40859;50.560;7.268;2022-11-11T01:44:54;6.65;;;2.53;;
36555;SDS011;40859;50.560;7.268;2022-11-11T01:47:20;9.73;;;3.30;;
36555;SDS011;40859;50.560;7.268;2022-11-11T01:55:17;5.78;;;2.40;;
36555;SDS011;40859;50.560;7.268;2022-11-11T01:58:04;3.87;;;2.03;;
36555;SDS011;40859;50.560;7.268;2022-11-11T02:01:15;6.40;;;2.30;;
36555;SDS011;40859;50.560;7.268;2022-11-11T02:03:42;7.68;;;2.95;;
36555;SDS011;40859;50.560;7.268;2022-11-11T02:08:06;7.43;;;2.70;;
36555;SDS011;40859;50.560;7.268;2022-11-11T02:10:34;7.62;;;2.50;;
36555;SDS011;40859;50.560;7.268;2022-11-11T02:13:00;5.78;;;3.12;;
36555;SDS011;40859;50.560;7.268;2022-11-11T02:15:45;5.97;;;2.20;;
36555;SDS011;40859;50.560;7.268;2022-11-11T02:18:11;6.80;;;2.53;;
36555;SDS011;40859;50.560;7.268;2022-11-11T02:20:42;6.70;;;2.30;;
36555;SDS011;40859;50.560;7.268;2022-11-11T02:23:17;14.80;;;2.40;;
36555;SDS011;40859;50.560;7.268;2022-11-11T02:25:45;6.72;;;2.42;;
36555;SDS011;40859;50.560;7.268;2022-11-11T02:28:13;6.10;;;2.33;;
36555;SDS011;40859;50.560;7.268;2022-11-11T02:30:39;6.35;;;2.45;;
36555;SDS011;40859;50.560;7.268;2022-11-11T02:33:05;5.22;;;2.60;;
36555;SDS011;40859;50.560;7.268;2022-11-11T02:35:33;4.50;;;2.30;;
36555;SDS011;40859;50.560;7.268;2022-11-11T02:38:00;5.97;;;2.35;;
36555;SDS011;40859;50.560;7.268;2022-11-11T02:40:46;6.28;;;2.85;;
36555;SDS011;40859;50.560;7.268;2022-11-11T02:43:31;5.90;;;2.65;;
36555;SDS011;40859;50.560;7.268;2022-11-11T02:45:58;9.70;;;2.53;;
36555;SDS011;40859;50.560;7.268;2022-11-11T02:48:24;3.95;;;2.28;;
36555;SDS011;40859;50.560;7.268;2022-11-11T02:50:51;6.03;;;2.53;;
36555;SDS011;40859;50.560;7.268;2022-11-11T02:53:17;5.00;;;1.90;;
36555;SDS011;40859;50.560;7.268;2022-11-11T02:55:43;4.12;;;1.98;;
36555;SDS011;40859;50.560;7.268;2022-11-11T02:58:10;5.28;;;2.37;;
36555;SDS011;40859;50.560;7.268;2022-11-11T03:00:36;7.62;;;1.52;;
36555;SDS011;40859;50.560;7.268;2022-11-11T03:03:03;3.72;;;1.95;;
36555;SDS011;40859;50.560;7.268;2022-11-11T03:05:29;7.05;;;1.98;;
36555;SDS011;40859;50.560;7.268;2022-11-11T03:07:55;8.18;;;2.28;;
36555;SDS011;40859;50.560;7.268;2022-11-11T03:10:21;3.90;;;2.00;;
36555;SDS011;40859;50.560;7.268;2022-11-11T03:12:48;7.65;;;2.03;;
36555;SDS011;40859;50.560;7.268;2022-11-11T03:15:14;4.00;;;2.03;;
36555;SDS011;40859;50.560;7.268;2022-11-11T03:17:44;10.75;;;2.08;;
36555;SDS011;40859;50.560;7.268;2022-11-11T03:20:20;7.12;;;1.87;;
36555;SDS011;40859;50.560;7.268;2022-11-11T03:25:30;9.25;;;1.85;;
36555;SDS011;40859;50.560;7.268;2022-11-11T03:28:07;6.47;;;2.20;;
36555;SDS011;40859;50.560;7.268;2022-11-11T03:30:34;5.65;;;2.08;;
36555;SDS011;40859;50.560;7.268;2022-11-11T03:33:00;3.80;;;1.40;;
36555;SDS011;40859;50.560;7.268;2022-11-11T03:35:26;10.90;;;1.85;;
36555;SDS011;40859;50.560;7.268;2022-11-11T03:37:52;8.80;;;2.50;;
36555;SDS011;40859;50.560;7.268;2022-11-11T03:43:03;4.32;;;1.92;;
36555;SDS011;40859;50.560;7.268;2022-11-11T03:45:29;2.72;;;1.85;;
36555;SDS011;40859;50.560;7.268;2022-11-11T03:47:55;4.50;;;1.92;;
36555;SDS011;40859;50.560;7.268;2022-11-11T03:50:25;2.00;;;1.67;;
36555;SDS011;40859;50.560;7.268;2022-11-11T03:52:52;5.60;;;2.45;;
36555;SDS011;40859;50.560;7.268;2022-11-11T03:55:18;8.05;;;2.37;;
36555;SDS011;40859;50.560;7.268;2022-11-11T03:57:45;12.07;;;2.42;;
36555;SDS011;40859;50.560;7.268;2022-11-11T04:00:13;3.33;;;1.80;;
36555;SDS011;40859;50.560;7.268;2022-11-11T04:02:40;9.77;;;1.90;;
36555;SDS011;40859;50.560;7.268;2022-11-11T04:05:25;9.90;;;2.28;;
36555;SDS011;40859;50.560;7.268;2022-11-11T04:10:28;4.37;;;1.55;;
36555;SDS011;40859;50.560;7.268;2022-11-11T04:12:55;5.97;;;1.30;;
36555;SDS011;40859;50.560;7.268;2022-11-11T04:15:40;3.67;;;1.50;;
36555;SDS011;40859;50.560;7.268;2022-11-11T04:21:09;3.35;;;1.25;;
36555;SDS011;40859;50.560;7.268;2022-11-11T04:23:54;2.60;;;1.30;;
36555;SDS011;40859;50.560;7.268;2022-11-11T04:26:21;3.20;;;1.20;;
36555;SDS011;40859;50.560;7.268;2022-11-11T04:28:47;5.30;;;1.80;;
36555;SDS011;40859;50.560;7.268;2022-11-11T04:33:58;4.70;;;1.62;;
36555;SDS011;40859;50.560;7.268;2022-11-11T04:36:24;2.50;;;1.08;;
36555;SDS011;40859;50.560;7.268;2022-11-11T04:38:51;2.92;;;1.10;;
36555;SDS011;40859;50.560;7.268;2022-11-11T04:44:01;2.00;;;1.02;;
36555;SDS011;40859;50.560;7.268;2022-11-11T04:46:45;4.93;;;1.55;;
36555;SDS011;40859;50.560;7.268;2022-11-11T04:49:12;2.67;;;1.17;;
36555;SDS011;40859;50.560;7.268;2022-11-11T04:51:38;3.35;;;1.20;;
36555;SDS011;40859;50.560;7.268;2022-11-11T04:56:48;2.55;;;1.05;;
36555;SDS011;40859;50.560;7.268;2022-11-11T04:59:18;8.77;;;1.42;;
36555;SDS011;40859;50.560;7.268;2022-11-11T05:01:44;4.47;;;1.33;;
36555;SDS011;40859;50.560;7.268;2022-11-11T05:04:29;4.95;;;2.03;;
36555;SDS011;40859;50.560;7.268;2022-11-11T05:06:55;2.67;;;1.17;;
36555;SDS011;40859;50.560;7.268;2022-11-11T05:09:40;4.30;;;1.48;;
36555;SDS011;40859;50.560;7.268;2022-11-11T05:12:06;2.50;;;1.10;;
36555;SDS011;40859;50.560;7.268;2022-11-11T05:14:32;3.40;;;1.17;;
36555;SDS011;40859;50.560;7.268;2022-11-11T05:17:16;4.75;;;0.93;;
36555;SDS011;40859;50.560;7.268;2022-11-11T05:20:01;2.17;;;1.30;;
36555;SDS011;40859;50.560;7.268;2022-11-11T05:22:46;2.12;;;0.80;;
36555;SDS011;40859;50.560;7.268;2022-11-11T05:25:12;6.00;;;1.30;;
36555;SDS011;40859;50.560;7.268;2022-11-11T05:27:54;4.87;;;1.30;;
36555;SDS011;40859;50.560;7.268;2022-11-11T05:30:20;2.70;;;1.30;;
36555;SDS011;40859;50.560;7.268;2022-11-11T05:32:47;3.37;;;1.00;;
36555;SDS011;40859;50.560;7.268;2022-11-11T05:35:14;5.45;;;1.27;;
36555;SDS011;40859;50.560;7.268;2022-11-11T05:37:40;2.92;;;1.12;;
36555;SDS011;40859;50.560;7.268;2022-11-11T05:40:07;3.72;;;1.20;;
36555;SDS011;40859;50.560;7.268;2022-11-11T05:42:33;1.80;;;0.90;;
36555;SDS011;40859;50.560;7.268;2022-11-11T05:44:59;1.45;;;0.95;;
36555;SDS011;40859;50.560;7.268;2022-11-11T05:47:26;2.50;;;1.00;;
36555;SDS011;40859;50.560;7.268;2022-11-11T05:49:52;2.97;;;1.08;;
36555;SDS011;40859;50.560;7.268;2022-11-11T05:52:18;2.92;;;1.30;;
36555;SDS011;40859;50.560;7.268;2022-11-11T05:54:44;3.08;;;1.33;;
36555;SDS011;40859;50.560;7.268;2022-11-11T05:57:11;3.95;;;1.05;;
36555;SDS011;40859;50.560;7.268;2022-11-11T05:59:37;5.28;;;1.10;;
36555;SDS011;40859;50.560;7.268;2022-11-11T06:02:03;2.33;;;1.17;;
36555;SDS011;40859;50.560;7.268;2022-11-11T06:04:29;2.30;;;1.20;;
36555;SDS011;40859;50.560;7.268;2022-11-11T06:06:56;1.60;;;0.98;;
36555;SDS011;40859;50.560;7.268;2022-11-11T06:09:22;4.00;;;1.00;;
36555;SDS011;40859;50.560;7.268;2022-11-11T06:11:48;1.83;;;0.88;;
36555;SDS011;40859;50.560;7.268;2022-11-11T06:14:14;2.53;;;0.85;;
36555;SDS011;40859;50.560;7.268;2022-11-11T06:16:40;2.05;;;0.90;;
36555;SDS011;40859;50.560;7.268;2022-11-11T06:19:06;2.08;;;0.85;;
36555;SDS011;40859;50.560;7.268;2022-11-11T06:21:32;1.20;;;0.82;;
36555;SDS011;40859;50.560;7.268;2022-11-11T06:24:20;1.50;;;0.90;;
36555;SDS011;40859;50.560;7.268;2022-11-11T06:26:47;2.42;;;0.93;;
36555;SDS011;40859;50.560;7.268;2022-11-11T06:29:13;1.85;;;0.90;;
36555;SDS011;40859;50.560;7.268;2022-11-11T06:31:39;2.12;;;1.10;;
36555;SDS011;40859;50.560;7.268;2022-11-11T06:34:05;1.92;;;1.10;;
36555;SDS011;40859;50.560;7.268;2022-11-11T06:36:32;5.40;;;1.10;;
36555;SDS011;40859;50.560;7.268;2022-11-11T06:38:58;2.80;;;1.20;;
36555;SDS011;40859;50.560;7.268;2022-11-11T06:41:24;1.92;;;0.90;;
36555;SDS011;40859;50.560;7.268;2022-11-11T06:43:51;1.80;;;1.23;;
36555;SDS011;40859;50.560;7.268;2022-11-11T06:46:21;3.53;;;0.85;;
36555;SDS011;40859;50.560;7.268;2022-11-11T06:48:48;3.30;;;1.27;;
36555;SDS011;40859;50.560;7.268;2022-11-11T06:51:15;1.98;;;1.08;;
36555;SDS011;40859;50.560;7.268;2022-11-11T06:53:41;3.80;;;1.40;;
36555;SDS011;40859;50.560;7.268;2022-11-11T06:56:07;5.80;;;2.65;;
36555;SDS011;40859;50.560;7.268;2022-11-11T06:58:34;8.63;;;2.72;;
36555;SDS011;40859;50.560;7.268;2022-11-11T07:01:04;6.78;;;1.83;;
36555;SDS011;40859;50.560;7.268;2022-11-11T07:03:30;10.48;;;1.58;;
36555;SDS011;40859;50.560;7.268;2022-11-11T07:05:59;12.13;;;2.17;;
36555;SDS011;40859;50.560;7.268;2022-11-11T07:08:25;9.88;;;2.28;;
36555;SDS011;40859;50.560;7.268;2022-11-11T07:10:51;33.17;;;3.65;;
36555;SDS011;40859;50.560;7.268;2022-11-11T07:13:17;4.47;;;1.40;;
36555;SDS011;40859;50.560;7.268;2022-11-11T07:15:43;11.35;;;1.55;;
36555;SDS011;40859;50.560;7.268;2022-11-11T07:18:10;6.90;;;1.60;;
36555;SDS011;40859;50.560;7.268;2022-11-11T07:20:36;9.55;;;1.30;;
36555;SDS011;40859;50.560;7.268;2022-11-11T07:23:03;4.43;;;1.40;;
36555;SDS011;40859;50.560;7.268;2022-11-11T07:25:29;6.80;;;1.50;;
36555;SDS011;40859;50.560;7.268;2022-11-11T07:27:56;6.12;;;1.45;;
36555;SDS011;40859;50.560;7.268;2022-11-11T07:30:22;3.58;;;1.75;;
36555;SDS011;40859;50.560;7.268;2022-11-11T07:32:49;6.18;;;1.40;;
36555;SDS011;40859;50.560;7.268;2022-11-11T07:35:16;3.75;;;1.27;;
36555;SDS011;40859;50.560;7.268;2022-11-11T07:37:42;6.50;;;1.55;;
36555;SDS011;40859;50.560;7.268;2022-11-11T07:40:09;5.03;;;1.55;;
36555;SDS011;40859;50.560;7.268;2022-11-11T07:42:36;5.12;;;1.80;;
36555;SDS011;40859;50.560;7.268;2022-11-11T07:45:03;12.93;;;1.40;;
36555;SDS011;40859;50.560;7.268;2022-11-11T07:47:29;3.03;;;1.27;;
36555;SDS011;40859;50.560;7.268;2022-11-11T07:49:55;11.12;;;1.50;;
36555;SDS011;40859;50.560;7.268;2022-11-11T07:52:22;5.50;;;1.58;;
36555;SDS011;40859;50.560;7.268;2022-11-11T07:54:48;5.00;;;1.58;;
36555;SDS011;40859;50.560;7.268;2022-11-11T07:57:14;8.15;;;1.77;;
36555;SDS011;40859;50.560;7.268;2022-11-11T07:59:40;12.30;;;1.67;;
36555;SDS011;40859;50.560;7.268;2022-11-11T08:02:22;5.47;;;1.42;;
36555;SDS011;40859;50.560;7.268;2022-11-11T08:05:00;3.00;;;1.42;;
36555;SDS011;40859;50.560;7.268;2022-11-11T08:07:26;4.15;;;1.40;;
36555;SDS011;40859;50.560;7.268;2022-11-11T08:09:52;2.47;;;1.10;;
36555;SDS011;40859;50.560;7.268;2022-11-11T08:12:19;3.33;;;1.70;;
36555;SDS011;40859;50.560;7.268;2022-11-11T08:15:04;11.95;;;1.62;;
36555;SDS011;40859;50.560;7.268;2022-11-11T08:17:30;2.20;;;1.23;;
36555;SDS011;40859;50.560;7.268;2022-11-11T08:19:56;6.82;;;1.23;;
36555;SDS011;40859;50.560;7.268;2022-11-11T08:22:22;8.30;;;1.70;;
36555;SDS011;40859;50.560;7.268;2022-11-11T08:24:48;6.30;;;1.62;;
36555;SDS011;40859;50.560;7.268;2022-11-11T08:27:15;4.40;;;1.60;;
36555;SDS011;40859;50.560;7.268;2022-11-11T08:29:41;4.75;;;1.40;;
36555;SDS011;40859;50.560;7.268;2022-11-11T08:32:07;3.15;;;1.12;;
36555;SDS011;40859;50.560;7.268;2022-11-11T08:34:33;11.50;;;2.00;;
36555;SDS011;40859;50.560;7.268;2022-11-11T08:36:59;5.20;;;1.30;;
36555;SDS011;40859;50.560;7.268;2022-11-11T08:39:25;5.28;;;2.12;;
36555;SDS011;40859;50.560;7.268;2022-11-11T08:41:51;5.20;;;1.48;;
36555;SDS011;40859;50.560;7.268;2022-11-11T08:44:18;6.78;;;1.37;;
36555;SDS011;40859;50.560;7.268;2022-11-11T08:46:44;5.12;;;1.48;;
36555;SDS011;40859;50.560;7.268;2022-11-11T08:49:10;4.18;;;1.98;;
36555;SDS011;40859;50.560;7.268;2022-11-11T08:51:37;7.82;;;1.92;;
36555;SDS011;40859;50.560;7.268;2022-11-11T08:54:03;3.78;;;1.20;;
36555;SDS011;40859;50.560;7.268;2022-11-11T08:56:29;10.45;;;1.75;;
36555;SDS011;40859;50.560;7.268;2022-11-11T08:58:55;6.87;;;1.60;;
36555;SDS011;40859;50.560;7.268;2022-11-11T09:01:21;3.95;;;1.37;;
36555;SDS011;40859;50.560;7.268;2022-11-11T09:03:48;4.72;;;2.08;;
36555;SDS011;40859;50.560;7.268;2022-11-11T09:06:14;7.62;;;2.15;;
36555;SDS011;40859;50.560;7.268;2022-11-11T09:08:40;5.32;;;1.48;;
36555;SDS011;40859;50.560;7.268;2022-11-11T09:11:07;4.60;;;1.35;;
36555;SDS011;40859;50.560;7.268;2022-11-11T09:13:33;3.20;;;1.37;;
36555;SDS011;40859;50.560;7.268;2022-11-11T09:15:59;2.12;;;1.20;;
36555;SDS011;40859;50.560;7.268;2022-11-11T09:18:26;2.75;;;1.05;;
36555;SDS011;40859;50.560;7.268;2022-11-11T09:20:52;7.75;;;2.75;;
36555;SDS011;40859;50.560;7.268;2022-11-11T09:23:18;13.45;;;2.90;;
36555;SDS011;40859;50.560;7.268;2022-11-11T09:25:44;5.32;;;2.05;;
36555;SDS011;40859;50.560;7.268;2022-11-11T09:28:11;10.57;;;1.77;;
36555;SDS011;40859;50.560;7.268;2022-11-11T09:30:37;11.80;;;2.25;;
36555;SDS011;40859;50.560;7.268;2022-11-11T09:33:03;11.70;;;3.17;;
36555;SDS011;40859;50.560;7.268;2022-11-11T09:35:29;11.63;;;2.60;;
36555;SDS011;40859;50.560;7.268;2022-11-11T09:37:57;12.93;;;2.03;;
36555;SDS011;40859;50.560;7.268;2022-11-11T09:40:24;11.48;;;3.30;;
36555;SDS011;40859;50.560;7.268;2022-11-11T09:42:54;9.75;;;2.78;;
36555;SDS011;40859;50.560;7.268;2022-11-11T09:45:31;16.55;;;2.12;;
36555;SDS011;40859;50.560;7.268;2022-11-11T09:54:02;9.02;;;1.65;;
36555;SDS011;40859;50.560;7.268;2022-11-11T09:56:30;12.95;;;2.50;;
36555;SDS011;40859;50.560;7.268;2022-11-11T09:58:59;13.43;;;2.85;;
36555;SDS011;40859;50.560;7.268;2022-11-11T10:01:28;9.52;;;1.87;;
36555;SDS011;40859;50.560;7.268;2022-11-11T10:10:13;10.73;;;2.20;;
36555;SDS011;40859;50.560;7.268;2022-11-11T10:12:43;12.23;;;1.83;;
36555;SDS011;40859;50.560;7.268;2022-11-11T10:15:12;6.78;;;1.05;;
36555;SDS011;40859;50.560;7.268;2022-11-11T10:18:01;23.17;;;1.98;;
36555;SDS011;40859;50.560;7.268;2022-11-11T10:20:31;18.02;;;1.95;;
36555;SDS011;40859;50.560;7.268;2022-11-11T10:23:09;21.73;;;2.47;;
36555;SDS011;40859;50.560;7.268;2022-11-11T10:25:39;20.37;;;3.67;;
36555;SDS011;40859;50.560;7.268;2022-11-11T11:08:11;11.55;;;1.52;;
36555;SDS011;40859;50.560;7.268;2022-11-11T11:10:42;7.97;;;1.77;;
36555;SDS011;40859;50.560;7.268;2022-11-11T11:13:33;8.50;;;1.70;;
36555;SDS011;40859;50.560;7.268;2022-11-11T11:16:03;13.90;;;2.25;;
36555;SDS011;40859;50.560;7.268;2022-11-11T11:18:31;10.15;;;2.30;;
36555;SDS011;40859;50.560;7.268;2022-11-11T11:20:58;8.50;;;2.05;;
36555;SDS011;40859;50.560;7.268;2022-11-11T11:23:34;7.95;;;2.10;;
36555;SDS011;40859;50.560;7.268;2022-11-11T11:26:01;7.60;;;2.53;;
36555;SDS011;40859;50.560;7.268;2022-11-11T11:28:28;7.35;;;2.12;;
36555;SDS011;40859;50.560;7.268;2022-11-11T11:30:59;14.95;;;3.05;;
36555;SDS011;40859;50.560;7.268;2022-11-11T11:33:25;8.27;;;2.30;;
36555;SDS011;40859;50.560;7.268;2022-11-11T11:35:51;11.43;;;2.87;;
36555;SDS011;40859;50.560;7.268;2022-11-11T11:38:17;8.77;;;2.90;;
36555;SDS011;40859;50.560;7.268;2022-11-11T11:40:48;7.72;;;2.12;;
36555;SDS011;40859;50.560;7.268;2022-11-11T11:46:00;11.73;;;2.08;;
36555;SDS011;40859;50.560;7.268;2022-11-11T11:54:57;12.70;;;2.08;;
36555;SDS011;40859;50.560;7.268;2022-11-11T11:57:51;7.20;;;2.28;;
36555;SDS011;40859;50.560;7.268;2022-11-11T12:00:37;12.65;;;2.17;;
36555;SDS011;40859;50.560;7.268;2022-11-11T12:10:06;11.90;;;2.50;;
36555;SDS011;40859;50.560;7.268;2022-11-11T12:12:43;17.73;;;4.93;;
36555;SDS011;40859;50.560;7.268;2022-11-11T12:15:15;11.27;;;2.47;;
36555;SDS011;40859;50.560;7.268;2022-11-11T12:23:33;20.05;;;3.67;;
36555;SDS011;40859;50.560;7.268;2022-11-11T12:26:07;19.70;;;3.62;;
36555;SDS011;40859;50.560;7.268;2022-11-11T12:28:41;13.50;;;2.60;;
36555;SDS011;40859;50.560;7.268;2022-11-11T12:31:22;9.65;;;2.35;;
36555;SDS011;40859;50.560;7.268;2022-11-11T12:33:57;11.40;;;2.65;;
36555;SDS011;40859;50.560;7.268;2022-11-11T12:37:12;9.05;;;2.50;;
36555;SDS011;40859;50.560;7.268;2022-11-11T12:40:33;11.70;;;1.98;;
36555;SDS011;40859;50.560;7.268;2022-11-11T13:09:13;11.07;;;1.77;;
36555;SDS011;40859;50.560;7.268;2022-11-11T13:11:47;11.88;;;1.90;;
36555;SDS011;40859;50.560;7.268;2022-11-11T13:14:30;14.63;;;2.60;;
36555;SDS011;40859;50.560;7.268;2022-11-11T13:17:00;13.15;;;2.55;;
36555;SDS011;40859;50.560;7.268;2022-11-11T13:20:02;8.68;;;2.22;;
36555;SDS011;40859;50.560;7.268;2022-11-11T13:22:31;20.20;;;2.47;;
36555;SDS011;40859;50.560;7.268;2022-11-11T13:24:58;19.17;;;1.85;;
36555;SDS011;40859;50.560;7.268;2022-11-11T13:27:43;7.22;;;1.83;;
36555;SDS011;40859;50.560;7.268;2022-11-11T13:30:34;10.23;;;2.28;;
36555;SDS011;40859;50.560;7.268;2022-11-11T13:33:04;7.68;;;1.98;;
36555;SDS011;40859;50.560;7.268;2022-11-11T13:35:40;11.20;;;2.35;;
36555;SDS011;40859;50.560;7.268;2022-11-11T13:38:10;10.30;;;2.72;;
36555;SDS011;40859;50.560;7.268;2022-11-11T13:40:41;3.03;;;1.40;;
36555;SDS011;40859;50.560;7.268;2022-11-11T13:43:15;5.90;;;2.20;;
36555;SDS011;40859;50.560;7.268;2022-11-11T13:45:42;14.43;;;2.17;;
36555;SDS011;40859;50.560;7.268;2022-11-11T13:48:22;10.85;;;3.72;;
36555;SDS011;40859;50.560;7.268;2022-11-11T13:50:50;9.55;;;2.33;;
36555;SDS011;40859;50.560;7.268;2022-11-11T13:53:29;16.02;;;2.70;;
36555;SDS011;40859;50.560;7.268;2022-11-11T13:56:02;9.82;;;2.55;;
36555;SDS011;40859;50.560;7.268;2022-11-11T13:58:35;14.18;;;2.47;;
36555;SDS011;40859;50.560;7.268;2022-11-11T14:01:03;9.75;;;1.92;;
36555;SDS011;40859;50.560;7.268;2022-11-11T14:03:32;8.00;;;3.10;;
36555;SDS011;40859;50.560;7.268;2022-11-11T14:14:44;9.85;;;2.40;;
36555;SDS011;40859;50.560;7.268;2022-11-11T14:17:12;23.50;;;3.20;;
36555;SDS011;40859;50.560;7.268;2022-11-11T14:19:39;7.87;;;2.60;;
36555;SDS011;40859;50.560;7.268;2022-11-11T14:24:50;14.05;;;3.97;;
36555;SDS011;40859;50.560;7.268;2022-11-11T14:27:17;12.70;;;2.42;;
36555;SDS011;40859;50.560;7.268;2022-11-11T14:29:52;11.63;;;1.87;;
36555;SDS011;40859;50.560;7.268;2022-11-11T14:36:18;29.00;;;2.58;;
36555;SDS011;40859;50.560;7.268;2022-11-11T14:38:52;9.40;;;2.50;;
36555;SDS011;40859;50.560;7.268;2022-11-11T14:50:39;12.30;;;2.83;;
36555;SDS011;40859;50.560;7.268;2022-11-11T14:53:19;16.62;;;2.08;;
36555;SDS011;40859;50.560;7.268;2022-11-11T14:55:51;6.53;;;1.92;;
36555;SDS011;40859;50.560;7.268;2022-11-11T14:58:20;6.30;;;1.73;;
36555;SDS011;40859;50.560;7.268;2022-11-11T15:00:50;17.30;;;2.40;;
36555;SDS011;40859;50.560;7.268;2022-11-11T15:03:24;22.15;;;2.30;;
36555;SDS011;40859;50.560;7.268;2022-11-11T15:21:33;8.32;;;2.08;;
36555;SDS011;40859;50.560;7.268;2022-11-11T15:27:31;18.23;;;2.15;;
36555;SDS011;40859;50.560;7.268;2022-11-11T15:30:08;12.85;;;1.80;;
36555;SDS011;40859;50.560;7.268;2022-11-11T15:32:44;10.93;;;1.70;;
36555;SDS011;40859;50.560;7.268;2022-11-11T15:39:40;20.30;;;2.47;;
36555;SDS011;40859;50.560;7.268;2022-11-11T15:48:11;6.57;;;2.00;;
36555;SDS011;40859;50.560;7.268;2022-11-11T15:50:37;8.50;;;1.87;;
36555;SDS011;40859;50.560;7.268;2022-11-11T15:53:04;10.23;;;1.60;;
36555;SDS011;40859;50.560;7.268;2022-11-11T15:55:31;6.47;;;2.15;;
36555;SDS011;40859;50.560;7.268;2022-11-11T15:58:14;7.72;;;1.40;;
36555;SDS011;40859;50.560;7.268;2022-11-11T16:00:40;2.90;;;1.37;;
36555;SDS011;40859;50.560;7.268;2022-11-11T16:03:14;10.88;;;2.35;;
36555;SDS011;40859;50.560;7.268;2022-11-11T16:05:40;13.40;;;2.03;;
36555;SDS011;40859;50.560;7.268;2022-11-11T16:08:07;5.95;;;2.10;;
36555;SDS011;40859;50.560;7.268;2022-11-11T16:10:38;6.22;;;1.95;;
36555;SDS011;40859;50.560;7.268;2022-11-11T16:13:39;5.93;;;1.48;;
36555;SDS011;40859;50.560;7.268;2022-11-11T16:16:20;7.20;;;1.75;;
36555;SDS011;40859;50.560;7.268;2022-11-11T16:18:49;9.27;;;2.35;;
36555;SDS011;40859;50.560;7.268;2022-11-11T16:21:39;8.05;;;2.37;;
36555;SDS011;40859;50.560;7.268;2022-11-11T16:24:12;19.02;;;1.95;;
36555;SDS011;40859;50.560;7.268;2022-11-11T16:26:42;5.28;;;1.45;;
36555;SDS011;40859;50.560;7.268;2022-11-11T16:29:12;6.22;;;1.85;;
36555;SDS011;40859;50.560;7.268;2022-11-11T16:31:39;11.45;;;1.83;;
36555;SDS011;40859;50.560;7.268;2022-11-11T16:39:20;10.40;;;1.85;;
36555;SDS011;40859;50.560;7.268;2022-11-11T16:41:51;10.00;;;1.80;;
36555;SDS011;40859;50.560;7.268;2022-11-11T16:47:45;5.90;;;1.50;;
36555;SDS011;40859;50.560;7.268;2022-11-11T16:50:15;12.63;;;1.95;;
36555;SDS011;40859;50.560;7.268;2022-11-11T16:53:00;10.75;;;1.42;;
36555;SDS011;40859;50.560;7.268;2022-11-11T16:55:38;9.57;;;2.40;;
36555;SDS011;40859;50.560;7.268;2022-11-11T16:58:12;12.48;;;2.45;;
36555;SDS011;40859;50.560;7.268;2022-11-11T17:00:40;18.95;;;3.22;;
36555;SDS011;40859;50.560;7.268;2022-11-11T17:03:13;11.48;;;2.03;;
36555;SDS011;40859;50.560;7.268;2022-11-11T17:10:50;8.25;;;1.92;;
36555;SDS011;40859;50.560;7.268;2022-11-11T17:13:17;5.22;;;1.70;;
36555;SDS011;40859;50.560;7.268;2022-11-11T17:15:43;21.17;;;1.98;;
36555;SDS011;40859;50.560;7.268;2022-11-11T17:18:09;6.40;;;2.72;;
36555;SDS011;40859;50.560;7.268;2022-11-11T17:20:38;8.45;;;2.03;;
36555;SDS011;40859;50.560;7.268;2022-11-11T17:23:04;12.68;;;2.28;;
36555;SDS011;40859;50.560;7.268;2022-11-11T17:25:31;6.50;;;2.60;;
36555;SDS011;40859;50.560;7.268;2022-11-11T17:27:57;12.15;;;2.67;;
36555;SDS011;40859;50.560;7.268;2022-11-11T17:30:24;10.68;;;2.12;;
36555;SDS011;40859;50.560;7.268;2022-11-11T17:32:50;20.27;;;3.05;;
36555;SDS011;40859;50.560;7.268;2022-11-11T17:35:16;30.90;;;7.78;;
36555;SDS011;40859;50.560;7.268;2022-11-11T17:37:42;18.55;;;3.40;;
36555;SDS011;40859;50.560;7.268;2022-11-11T17:40:09;20.83;;;3.95;;
36555;SDS011;40859;50.560;7.268;2022-11-11T17:42:36;12.00;;;3.10;;
36555;SDS011;40859;50.560;7.268;2022-11-11T17:45:02;40.75;;;4.78;;
36555;SDS011;40859;50.560;7.268;2022-11-11T17:47:29;14.85;;;3.22;;
36555;SDS011;40859;50.560;7.268;2022-11-11T17:49:56;14.93;;;3.17;;
